37ème Rallye Régional de Vaison la Romaine
France Régions

Rallye de Vaison : Anthony Puppo s’impose !

C’est au final Anthony Puppo qui s’impose sur ce Rallye de Vaison. Pourtant après deux spéciales qui composaient la première journée du c’est Renaud Bernard qui menait devant la Polo R5.

Malheureusement, la bataille se sera pas allée à son terme car Renaud Bernard sortait en vue de l’arrivée de l’ES5 laissant le champ libre à Anthony Puppo qui s’impose pour sa première sortie au volant de la Polo R5 devant Ludovic Gal et Laurent Lacomy.

Une semaine après sa très belle course aux Roches Brunes, Fabrice Calascione est le premier des autres derrière les R5.

Alors que pour sa rentrée Jonathan Boueri rentre 8 ème ! C’est la performance du week – end !

CLASSEMENT GENERAL :

CLN° EQUIPAGE VOITURE GROUPE CLASSE TEMPS
12PUPPO AnthonySERET VirginieVolkswagen PoloR525:05:9
211GAL LudovicCOMBE GeoffreyHyundai I 20R525:09:9+ 00:04.000+ 00:04.000
314LACOMY LaurentBARD JérômeCitroen C3R525:25:4+ 00:19.500+ 00:15.500
49ROCHE RomainROSSETTO CyrilSkoda FabiaR525:36:2+ 00:30.300+ 00:10.800
510RAOUX Jean-MichelESCARTEFIGUE ThomasVolkswagen PoloR525:47:0+ 00:41.100+ 00:10.800
64MASCLAUX ArnaudMOULIN AlexandreFord FiestaR526:08:6+ 01:02.700+ 00:21.600
722CALASCIONE FabriceTOPPI AnthonyPeugeot 306 MaxiFA7K26:32:3+ 01:26.400+ 00:23.700
851BOUERI JonathanMASSI Jean-MichaëlRenault 11 atmoF21426:48:1+ 01:42.200+ 00:15.800
941CIRASA SteeveBORELLI AlexandrePeugeot 206 RCF21426:54:4+ 01:48.500+ 00:06.300
1055CARDENAS BenjaminDANTONI FlorentPeugeot 306F21427:01:4+ 01:55.500+ 00:07.000
1132GRANDORDY FranckVINCENT PatriceRenault ClioR327:01:4+ 01:55.500+ 00:00.000
1228PEYNE ChristopheHERMET FrédéricMitsubishi Lancer EvoluR427:12:7+ 02:06.800+ 00:11.300
1331CARADEC JérémyAMOROS CédricRenault ClioR327:15:4+ 02:09.500+ 00:02.700
1424DUCLAUX JulienVATTIER BrunoPeugeot 207 RCA827:31:7+ 02:25.800+ 00:16.300
1535ANDRE Jean-PhilippeBURZIO LucasPeugeot 206 2LF21427:37:5+ 02:31.600+ 00:05.800
16136ROQUES JulianROQUES RomainRenault Clio WilliamsF21427:41:5+ 02:35.600+ 00:04.000
1764GIRAUD DidierAVON LionelCitroen C2R227:41:8+ 02:35.900+ 00:00.300
1854JAKOBSEN JohnnyKUPELIAN FrédéricBMW 318 compactF21427:42:1+ 02:36.200+ 00:00.300
1960GROSCARRET FranckSASSO SébastienRenault ClioFA6K27:46:3+ 02:40.400+ 00:04.200
2061GRAS MarcBLANCHARD CyrielleCitroen C2 SuperA6K27:59:6+ 02:53.700+ 00:13.300
2163LAFOND StiveLAFOND KylianCitroen C2R228:00:5+ 02:54.600+ 00:00.900
2295BONNET FrédéricLAFONT AlexisCitroen SaxoF21328:03:7+ 02:57.800+ 00:03.200
2330CHARDON FrédéricCHARDON FlorianRenault Clio RSR328:05:3+ 02:59.400+ 00:01.600
2452RAGNI MichaëlBESSI AlexandraRenault Clio MaxiF21428:14:3+ 03:08.400+ 00:09.000
2544BONARDEL OlivierROMERO MatthiasRenault ClioF21428:19:5+ 03:13.600+ 00:05.200
2685SCANDOLA LoïcMARTINI MaximeRenault ClioFN328:27:4+ 03:21.500+ 00:07.900
27117ABRIL StéphaneBOTRINI JulienPeugeot 205 RallyeF21228:33:4+ 03:27.500+ 00:06.000
2883ORIOL Jean-MarieBOURRET SébastienPeugeot 206 RCFN328:42:7+ 03:36.800+ 00:09.300
2958MUZY LudovicAUGER DenisPeugeot 206F21428:45:0+ 03:39.100+ 00:02.300
3018RIZO ThomasBONICEL AdrienBMW 135 IGT1028:50:0+ 03:44.100+ 00:05.000
3192AMARD CyrilAMARD SergeCitroen SaxoF21328:56:3+ 03:50.400+ 00:06.300
3250TOESCA RomainPIETROSEMOLI LucasPeugeot 205F21429:00:0+ 03:54.100+ 00:03.700
3353BOYER Jean-FrançoisVILLANI Jean-RenéPeugeot 206 RCF21429:05:0+ 03:59.100+ 00:05.000
34104JOYEUX JérômeBIAGETTI LoanPeugeot 106FA529:05:2+ 03:59.300+ 00:00.200
35106PONTAL JulienBERTRAND LudivineFord FiestaR2J29:25:4+ 04:19.500+ 00:20.200
36109ROUMIEUX YohanGARTNER VictorCitroen SaxoFN229:41:5+ 04:35.600+ 00:16.100
3766FARLAY CédricBOUCHUT VirginieRenault ClioFA729:43:2+ 04:37.300+ 00:01.700
3891SALINAS RomainBOUVIER VincentCitroen SaxoF21329:58:5+ 04:52.600+ 00:15.300
3981DURAND CédricHERNANDEZ KarineRenault ClioFN330:21:5+ 05:15.600+ 00:23.000

Laisser un commentaire

Votre adresse de messagerie ne sera pas publiée. Les champs obligatoires sont indiqués avec *